createdAt,value
2023-05-16T00:10:35.101Z,72.96
2023-05-16T00:13:02.173Z,72.71
2023-05-16T00:18:04.312Z,72.91
2023-05-16T00:31:14.623Z,73.00
2023-05-16T00:33:41.255Z,72.94
2023-05-16T00:36:08.020Z,72.76
2023-05-16T00:38:34.618Z,72.67
2023-05-16T00:41:01.221Z,72.48
2023-05-16T00:43:27.969Z,72.23
2023-05-16T00:45:54.710Z,72.15
2023-05-16T00:48:21.312Z,72.07
2023-05-16T00:55:59.126Z,71.95
2023-05-16T00:58:26.168Z,71.60
2023-05-16T01:00:53.370Z,71.26
2023-05-16T01:10:09.729Z,71.31
2023-05-16T01:15:25.936Z,71.13
2023-05-16T01:18:01.724Z,71.28
2023-05-16T01:20:45.718Z,71.13
2023-05-16T01:26:02.840Z,70.81
2023-05-16T01:28:30.301Z,71.01
2023-05-16T01:30:56.898Z,70.86
2023-05-16T01:41:41.193Z,70.79
2023-05-16T01:44:16.247Z,70.75
2023-05-16T01:46:45.988Z,70.43
2023-05-16T01:49:36.209Z,70.00
2023-05-16T01:52:32.164Z,69.42
2023-05-16T01:55:00.248Z,69.76
2023-05-16T01:57:31.198Z,69.67
2023-05-16T02:00:01.985Z,69.34
2023-05-16T02:06:25.998Z,69.14
2023-05-16T02:09:11.016Z,69.30
2023-05-16T02:11:37.541Z,69.11
2023-05-16T02:14:04.132Z,68.93
2023-05-16T02:16:33.995Z,68.71
2023-05-16T02:19:00.631Z,68.91
2023-05-16T02:21:27.177Z,68.86
2023-05-16T02:24:12.449Z,68.86
2023-05-16T02:26:39.502Z,69.04
2023-05-16T02:29:06.213Z,69.16
2023-05-16T02:31:36.861Z,69.08
2023-05-16T02:37:42.133Z,69.40
2023-05-16T02:40:09.428Z,69.57
2023-05-16T02:42:36.063Z,69.47
2023-05-16T02:45:02.759Z,69.33
2023-05-16T02:47:29.353Z,69.32
2023-05-16T02:49:56.353Z,69.66
2023-05-16T02:52:22.912Z,69.38
2023-05-16T02:55:04.729Z,69.53
2023-05-16T02:57:36.019Z,69.54
2023-05-16T03:00:02.609Z,69.64
2023-05-16T03:02:29.271Z,69.77
2023-05-16T03:04:56.167Z,70.34
2023-05-16T03:07:22.710Z,70.31
2023-05-16T03:09:49.378Z,70.36
2023-05-16T03:12:15.905Z,70.34
2023-05-16T03:14:42.448Z,70.49
2023-05-16T03:17:09.219Z,70.46
2023-05-16T03:19:35.859Z,70.21
2023-05-16T03:44:42.210Z,70.17
2023-05-16T03:47:08.796Z,70.16
2023-05-16T03:49:37.012Z,70.16
2023-05-16T03:52:05.277Z,70.53
2023-05-16T03:54:31.922Z,70.35
2023-05-16T03:57:21.493Z,70.44
2023-05-16T03:59:48.357Z,70.74
2023-05-16T04:02:16.759Z,70.70
2023-05-16T04:04:45.921Z,70.80
2023-05-16T04:11:43.745Z,70.33
2023-05-16T04:14:10.399Z,70.80
2023-05-16T04:16:37.081Z,70.33
2023-05-16T04:19:03.965Z,70.60
2023-05-16T04:21:31.103Z,70.81
2023-05-16T04:23:57.842Z,70.66
2023-05-16T04:26:24.940Z,70.99
2023-05-16T04:28:51.547Z,70.71
2023-05-16T04:31:18.257Z,70.19
2023-05-16T04:33:44.943Z,70.28
2023-05-16T04:36:11.617Z,70.12
2023-05-16T04:38:38.157Z,70.07
2023-05-16T04:41:04.865Z,69.37
2023-05-16T04:43:40.741Z,69.53
2023-05-16T04:46:10.282Z,69.76
2023-05-16T04:48:36.942Z,69.80
2023-05-16T04:51:03.653Z,69.17
2023-05-16T04:57:54.537Z,69.13
2023-05-16T05:00:21.386Z,68.92
2023-05-16T05:02:48.075Z,69.59
2023-05-16T05:05:15.034Z,69.38
2023-05-16T05:07:45.263Z,69.29
2023-05-16T05:15:22.273Z,69.39
2023-05-16T05:17:49.350Z,69.37
2023-05-16T05:20:16.435Z,69.82
2023-05-16T05:22:43.027Z,69.73
2023-05-16T05:25:09.955Z,69.55
2023-05-16T05:27:36.647Z,69.10
2023-05-16T05:30:03.975Z,69.36
2023-05-16T05:32:31.219Z,69.72
2023-05-16T05:34:57.896Z,69.59
2023-05-16T05:37:25.439Z,69.41
2023-05-16T05:39:52.125Z,69.33
2023-05-16T05:42:18.695Z,69.25
2023-05-16T05:44:45.263Z,69.47
2023-05-16T05:47:14.610Z,69.36
2023-05-16T05:49:41.321Z,69.61
2023-05-16T05:52:08.007Z,69.27
2023-05-16T05:54:34.694Z,68.90
2023-05-16T05:57:01.283Z,69.15
2023-05-16T05:59:27.974Z,69.11
2023-05-16T06:01:54.712Z,68.84
2023-05-16T06:04:21.864Z,68.33
2023-05-16T06:06:48.488Z,69.20
2023-05-16T06:09:15.198Z,68.96
2023-05-16T06:11:42.413Z,69.39
2023-05-16T06:14:09.035Z,69.35
2023-05-16T06:16:35.738Z,69.64
2023-05-16T06:19:02.504Z,69.95
2023-05-16T06:21:29.125Z,70.24
2023-05-16T06:23:55.695Z,70.74
2023-05-16T06:26:54.798Z,71.14
2023-05-16T06:29:23.307Z,71.00
2023-05-16T06:31:49.905Z,70.75
2023-05-16T06:34:16.908Z,71.68
2023-05-16T06:40:54.960Z,71.62
2023-05-16T06:43:21.615Z,71.88
2023-05-16T06:45:48.244Z,70.68
2023-05-16T06:48:15.753Z,70.26
2023-05-16T06:50:42.454Z,70.81
2023-05-16T06:53:12.134Z,71.25
2023-05-16T06:55:38.757Z,71.19
2023-05-16T06:58:05.340Z,72.55
2023-05-16T07:00:32.176Z,72.91
2023-05-16T07:02:59.033Z,73.07
2023-05-16T07:05:25.854Z,73.54
2023-05-16T07:07:52.557Z,74.93
2023-05-16T07:10:19.223Z,75.20
2023-05-16T07:13:06.260Z,76.84
2023-05-16T07:15:33.114Z,78.84
2023-05-16T07:17:59.801Z,79.56
2023-05-16T07:20:26.540Z,78.47
2023-05-16T07:23:24.305Z,79.96
2023-05-16T07:26:15.256Z,80.72
2023-05-16T07:28:42.004Z,81.41
2023-05-16T07:31:11.065Z,82.64
2023-05-16T07:33:37.664Z,82.95
2023-05-16T07:36:16.219Z,82.66
2023-05-16T07:38:44.070Z,82.54
2023-05-16T07:41:10.797Z,82.60
2023-05-16T07:43:37.503Z,83.35
2023-05-16T07:46:04.944Z,85.05
2023-05-16T07:48:31.666Z,85.64
2023-05-16T07:51:16.638Z,84.90
2023-05-16T07:53:43.258Z,85.85
2023-05-16T07:56:10.002Z,84.49
2023-05-16T08:01:12.100Z,84.80
2023-05-16T08:03:38.873Z,84.61
2023-05-16T08:06:05.870Z,84.57
2023-05-16T08:08:32.699Z,87.16
2023-05-16T08:10:59.590Z,86.09
2023-05-16T08:13:26.221Z,85.58
2023-05-16T08:15:53.120Z,85.93
2023-05-16T08:18:22.273Z,86.32
2023-05-16T08:20:49.443Z,86.86
2023-05-16T08:23:16.423Z,84.93
2023-05-16T08:25:43.066Z,86.00
2023-05-16T08:28:09.715Z,85.87
2023-05-16T08:30:36.261Z,86.09
2023-05-16T08:33:05.117Z,86.69
2023-05-16T08:35:32.074Z,86.09
2023-05-16T08:40:40.786Z,86.35
2023-05-16T08:43:07.557Z,85.42
2023-05-16T08:45:35.008Z,86.09
2023-05-16T08:48:03.706Z,86.70
2023-05-16T08:50:32.233Z,86.77
2023-05-16T08:53:11.827Z,86.76
2023-05-16T09:12:11.770Z,88.94
2023-05-16T09:14:38.461Z,91.58
2023-05-16T09:17:36.076Z,89.74
2023-05-16T09:20:11.903Z,87.63
2023-05-16T09:22:39.243Z,88.73
2023-05-16T09:25:18.347Z,89.30
2023-05-16T09:28:22.755Z,89.73
2023-05-16T09:30:49.516Z,91.36
2023-05-16T09:33:17.693Z,89.61
2023-05-16T09:35:45.656Z,88.43
2023-05-16T09:38:17.438Z,89.60
2023-05-16T09:40:45.532Z,88.42
2023-05-16T09:43:18.769Z,89.09
2023-05-16T09:45:49.127Z,89.46
2023-05-16T09:48:19.903Z,88.00
2023-05-16T09:51:11.118Z,87.28
2023-05-16T10:07:17.882Z,86.17
2023-05-16T10:09:46.399Z,89.16
2023-05-16T10:12:14.389Z,87.95
2023-05-16T10:14:42.365Z,88.65
2023-05-16T10:17:12.474Z,89.27
2023-05-16T10:19:40.292Z,87.77
2023-05-16T10:22:08.427Z,89.22
2023-05-16T10:25:06.295Z,89.66
2023-05-16T10:27:33.731Z,91.51
2023-05-16T10:30:03.213Z,90.62
2023-05-16T10:32:30.113Z,91.39
2023-05-16T10:34:57.246Z,91.68
2023-05-16T10:37:24.694Z,90.43
2023-05-16T10:39:52.824Z,91.44
2023-05-16T10:42:20.670Z,91.60
2023-05-16T10:45:01.974Z,90.53
2023-05-16T10:47:33.674Z,89.97
2023-05-16T10:50:00.417Z,91.51
2023-05-16T10:52:35.086Z,91.25
2023-05-16T10:55:04.796Z,91.10
2023-05-16T10:57:33.400Z,91.24
2023-05-16T11:00:02.082Z,90.33
2023-05-16T11:02:39.927Z,90.29
2023-05-16T11:05:07.119Z,89.00
2023-05-16T11:07:36.217Z,89.92
2023-05-16T11:10:05.769Z,90.12
2023-05-16T11:12:50.709Z,88.63
2023-05-16T11:18:15.896Z,91.17
2023-05-16T11:25:56.868Z,88.22
2023-05-16T11:33:51.362Z,90.87
2023-05-16T11:36:19.429Z,90.05
2023-05-16T11:41:41.492Z,91.98
2023-05-16T11:44:14.447Z,90.31
2023-05-16T11:46:41.131Z,92.43
2023-05-16T11:49:09.687Z,91.79
2023-05-16T11:51:41.105Z,92.33
2023-05-16T11:54:10.205Z,92.74
2023-05-16T11:56:37.135Z,90.43
2023-05-16T11:59:03.943Z,88.90
2023-05-16T12:01:35.890Z,90.80
2023-05-16T12:04:02.867Z,90.97
2023-05-16T12:06:31.312Z,90.28
2023-05-16T12:09:03.790Z,90.39
2023-05-16T12:11:54.468Z,89.32
2023-05-16T12:14:25.818Z,88.33
2023-05-16T12:16:53.947Z,87.90
2023-05-16T12:19:21.629Z,87.34
2023-05-16T12:26:07.026Z,87.16
2023-05-16T12:28:39.694Z,88.47
2023-05-16T12:31:31.743Z,87.26
2023-05-16T12:33:59.559Z,86.25
2023-05-16T12:36:26.603Z,86.97
2023-05-16T12:38:53.816Z,86.50
2023-05-16T12:41:22.907Z,85.23
2023-05-16T12:44:07.635Z,85.42
2023-05-16T12:46:35.504Z,85.25
2023-05-16T12:51:54.385Z,83.86
2023-05-16T12:54:31.852Z,85.17
2023-05-16T12:57:23.802Z,83.77
2023-05-16T12:59:51.524Z,85.30
2023-05-16T13:02:19.101Z,85.70
2023-05-16T13:04:45.949Z,85.04
2023-05-16T13:07:14.338Z,85.38
2023-05-16T13:09:41.902Z,85.35
2023-05-16T13:12:08.655Z,85.66
2023-05-16T13:14:37.428Z,87.52
2023-05-16T13:17:13.882Z,86.71
2023-05-16T13:19:41.039Z,86.55
2023-05-16T13:22:07.892Z,86.73
2023-05-16T13:24:34.524Z,85.11
2023-05-16T13:27:01.306Z,86.88
2023-05-16T13:29:30.676Z,87.22
2023-05-16T13:32:01.790Z,87.26
2023-05-16T13:34:28.517Z,87.61
2023-05-16T13:37:03.574Z,86.68
2023-05-16T13:39:30.301Z,86.59
2023-05-16T13:41:56.907Z,84.37
2023-05-16T13:44:25.304Z,86.09
2023-05-16T13:46:52.196Z,84.88
2023-05-16T13:49:21.008Z,82.60
2023-05-16T13:55:56.407Z,84.65
2023-05-16T13:58:23.363Z,82.87
2023-05-16T14:06:41.559Z,83.84
2023-05-16T14:09:08.167Z,82.67
2023-05-16T14:14:10.058Z,81.37
2023-05-16T14:16:46.415Z,80.00
2023-05-16T14:19:19.149Z,79.23
2023-05-16T14:28:03.083Z,79.10
2023-05-16T14:42:21.540Z,78.21
2023-05-16T14:44:51.776Z,79.50
2023-05-16T14:47:18.546Z,79.20
2023-05-16T14:56:18.302Z,79.68
2023-05-16T14:58:44.971Z,80.13
2023-05-16T15:01:11.627Z,80.68
2023-05-16T15:03:53.559Z,79.79
2023-05-16T15:06:22.381Z,79.90
2023-05-16T15:09:13.569Z,80.08
2023-05-16T15:11:40.153Z,79.40
2023-05-16T15:14:06.794Z,81.83
2023-05-16T15:16:33.413Z,80.25
2023-05-16T15:19:00.262Z,80.02
2023-05-16T15:25:06.566Z,81.49
2023-05-16T15:27:33.353Z,82.68
2023-05-16T15:30:00.725Z,84.25
2023-05-16T15:32:27.668Z,84.06
2023-05-16T15:34:54.431Z,85.00
2023-05-16T15:37:24.415Z,87.22
2023-05-16T15:42:26.288Z,86.86
2023-05-16T15:44:52.846Z,86.46
2023-05-16T15:47:19.522Z,86.93
2023-05-16T15:53:28.523Z,88.13
2023-05-16T15:55:55.654Z,87.68
2023-05-16T15:58:31.215Z,88.22
2023-05-16T16:00:58.030Z,87.62
2023-05-16T16:03:24.720Z,89.07
2023-05-16T16:05:52.263Z,88.03
2023-05-16T16:10:54.547Z,87.64
2023-05-16T16:16:02.410Z,87.90
2023-05-16T16:25:05.579Z,89.96
2023-05-16T16:27:32.472Z,90.35
2023-05-16T16:30:00.078Z,88.33
2023-05-16T16:32:27.002Z,87.51
2023-05-16T16:35:02.608Z,89.62
2023-05-16T16:37:29.402Z,88.67
2023-05-16T16:39:59.255Z,89.83
2023-05-16T16:42:26.881Z,91.59
2023-05-16T16:44:54.605Z,91.25
2023-05-16T16:47:23.210Z,91.16
2023-05-16T16:49:49.943Z,90.70
2023-05-16T16:52:16.542Z,90.66
2023-05-16T16:54:43.160Z,90.62
2023-05-16T16:57:09.901Z,89.42
2023-05-16T16:59:36.657Z,88.14
2023-05-16T17:02:03.293Z,87.32
2023-05-16T17:04:40.091Z,86.47
2023-05-16T17:12:52.060Z,89.16
2023-05-16T17:15:18.719Z,90.54
2023-05-16T17:17:46.017Z,90.45
2023-05-16T17:20:15.192Z,90.90
2023-05-16T17:22:41.850Z,91.34
2023-05-16T17:25:09.979Z,92.75
2023-05-16T17:27:40.815Z,91.84
2023-05-16T17:47:30.068Z,92.77
2023-05-16T17:49:57.094Z,93.74
2023-05-16T17:52:23.983Z,92.59
2023-05-16T17:54:50.820Z,91.96
2023-05-16T17:57:17.501Z,91.24
2023-05-16T17:59:45.608Z,91.08
2023-05-16T18:10:47.481Z,89.39
2023-05-16T18:13:31.278Z,90.90
2023-05-16T18:16:04.369Z,89.47
2023-05-16T18:18:31.950Z,89.76
2023-05-16T18:21:01.543Z,89.99
2023-05-16T18:23:33.264Z,90.42
2023-05-16T18:26:03.054Z,90.27
2023-05-16T18:28:29.847Z,90.05
2023-05-16T18:30:56.984Z,89.17
2023-05-16T18:33:26.694Z,88.94
2023-05-16T18:35:53.530Z,87.89
2023-05-16T18:38:32.012Z,87.42
2023-05-16T18:41:01.562Z,89.32
2023-05-16T18:43:28.516Z,87.58
2023-05-16T18:45:55.097Z,87.17
2023-05-16T18:48:45.407Z,88.67
2023-05-16T18:51:14.774Z,88.04
2023-05-16T18:53:41.379Z,89.08
2023-05-16T18:56:08.026Z,88.10
2023-05-16T18:58:34.723Z,88.96
2023-05-16T19:01:01.743Z,89.64
2023-05-16T19:03:29.853Z,88.87
2023-05-16T19:05:56.852Z,89.15
2023-05-16T19:08:25.504Z,88.25
2023-05-16T19:10:54.609Z,88.73
2023-05-16T19:13:22.370Z,89.46
2023-05-16T19:15:48.990Z,89.16
2023-05-16T19:18:17.775Z,89.22
2023-05-16T19:20:46.071Z,89.40
2023-05-16T19:23:12.769Z,87.13
2023-05-16T19:25:45.644Z,86.87
2023-05-16T19:28:12.140Z,86.12
2023-05-16T19:30:43.063Z,85.66
2023-05-16T19:33:10.583Z,85.05
2023-05-16T19:35:38.748Z,87.37
2023-05-16T19:38:05.493Z,86.62
2023-05-16T19:40:34.374Z,85.99
2023-05-16T19:43:06.841Z,86.00
2023-05-16T19:45:33.463Z,87.09
2023-05-16T19:48:00.155Z,86.75
2023-05-16T19:50:26.920Z,86.86
2023-05-16T19:52:53.882Z,86.68
2023-05-16T19:55:21.074Z,88.05
2023-05-16T19:57:47.787Z,86.98
2023-05-16T20:00:15.018Z,87.71
2023-05-16T20:02:43.111Z,86.44
2023-05-16T20:05:10.424Z,86.24
2023-05-16T20:07:41.552Z,86.32
2023-05-16T20:10:09.608Z,85.03
2023-05-16T20:12:48.538Z,85.04
2023-05-16T20:15:15.323Z,83.80
2023-05-16T20:17:41.974Z,84.78
2023-05-16T20:20:09.486Z,86.49
2023-05-16T20:22:45.190Z,86.62
2023-05-16T20:25:12.067Z,86.13
2023-05-16T20:28:00.930Z,84.13
2023-05-16T20:30:30.229Z,82.94
2023-05-16T20:35:32.057Z,82.52
2023-05-16T20:38:03.273Z,83.70
2023-05-16T20:40:30.019Z,84.17
2023-05-16T20:42:56.621Z,85.35
2023-05-16T20:47:58.537Z,83.45
2023-05-16T20:50:25.245Z,82.46
2023-05-16T20:52:51.830Z,81.80
2023-05-16T20:55:19.949Z,81.19
2023-05-16T20:58:34.157Z,82.83
2023-05-16T21:01:11.176Z,83.17
2023-05-16T21:03:37.899Z,84.39
2023-05-16T21:06:05.091Z,84.74
2023-05-16T21:08:33.766Z,85.62
2023-05-16T21:13:38.092Z,83.14
2023-05-16T21:16:05.008Z,83.58
2023-05-16T21:18:32.200Z,83.21
2023-05-16T21:20:58.877Z,83.39
2023-05-16T21:23:26.028Z,84.10
2023-05-16T21:31:19.805Z,83.57
2023-05-16T21:33:59.512Z,82.38
2023-05-16T21:36:33.644Z,82.89
2023-05-16T21:39:10.203Z,82.71
2023-05-16T21:41:38.125Z,84.45
2023-05-16T21:57:35.720Z,84.46
2023-05-16T22:00:10.012Z,85.16
2023-05-16T22:02:39.827Z,84.22
2023-05-16T22:05:07.067Z,84.08
2023-05-16T22:07:33.886Z,83.72
2023-05-16T22:12:42.513Z,82.34
2023-05-16T22:15:12.133Z,82.42
2023-05-16T22:17:39.670Z,82.20
2023-05-16T22:20:07.487Z,81.46
2023-05-16T22:22:34.372Z,81.45
2023-05-16T22:33:06.633Z,80.83
2023-05-16T22:35:34.474Z,80.56
2023-05-16T22:38:01.108Z,80.60
2023-05-16T22:46:05.867Z,80.33
2023-05-16T22:48:32.757Z,80.07
2023-05-16T22:50:59.948Z,80.27
2023-05-16T22:53:26.724Z,80.53
2023-05-16T22:55:53.337Z,80.01
2023-05-16T22:58:20.390Z,80.37
2023-05-16T23:00:47.331Z,80.34
2023-05-16T23:03:45.078Z,80.81
2023-05-16T23:06:18.272Z,80.41
2023-05-16T23:11:33.589Z,80.44
2023-05-16T23:14:00.176Z,79.78
2023-05-16T23:16:28.020Z,79.55
2023-05-16T23:18:54.654Z,79.26
2023-05-16T23:21:21.307Z,78.82
2023-05-16T23:23:47.888Z,78.61
2023-05-16T23:26:14.592Z,78.73
2023-05-16T23:28:41.228Z,78.46
2023-05-16T23:33:45.693Z,78.43
2023-05-16T23:36:13.478Z,78.46
2023-05-16T23:41:15.384Z,79.34
2023-05-16T23:43:45.852Z,79.63
2023-05-16T23:46:15.388Z,79.97
2023-05-16T23:51:17.208Z,79.83
2023-05-16T23:53:43.774Z,80.54
2023-05-16T23:56:10.430Z,80.28
2023-05-16T23:58:37.464Z,80.21
